sensor_id;sensor_type;location;lat;lon;timestamp;P1;durP1;ratioP1;P2;durP2;ratioP2
31764;SDS011;18338;53.240;8.798;2023-09-07T00:01:36;4.22;;;3.88;;
31764;SDS011;18338;53.240;8.798;2023-09-07T00:04:03;4.20;;;3.90;;
31764;SDS011;18338;53.240;8.798;2023-09-07T00:06:32;4.35;;;4.05;;
31764;SDS011;18338;53.240;8.798;2023-09-07T00:09:01;4.13;;;3.83;;
31764;SDS011;18338;53.240;8.798;2023-09-07T00:11:34;3.97;;;3.67;;
31764;SDS011;18338;53.240;8.798;2023-09-07T00:14:01;4.30;;;4.00;;
31764;SDS011;18338;53.240;8.798;2023-09-07T00:16:30;4.30;;;3.90;;
31764;SDS011;18338;53.240;8.798;2023-09-07T00:19:01;4.07;;;3.78;;
31764;SDS011;18338;53.240;8.798;2023-09-07T00:21:29;3.72;;;3.45;;
31764;SDS011;18338;53.240;8.798;2023-09-07T00:23:56;4.53;;;4.10;;
31764;SDS011;18338;53.240;8.798;2023-09-07T00:26:23;5.00;;;4.50;;
31764;SDS011;18338;53.240;8.798;2023-09-07T00:28:49;5.00;;;4.45;;
31764;SDS011;18338;53.240;8.798;2023-09-07T00:31:16;5.00;;;4.50;;
31764;SDS011;18338;53.240;8.798;2023-09-07T00:33:43;4.72;;;4.20;;
31764;SDS011;18338;53.240;8.798;2023-09-07T00:36:10;4.95;;;4.55;;
31764;SDS011;18338;53.240;8.798;2023-09-07T00:38:37;4.50;;;4.10;;
31764;SDS011;18338;53.240;8.798;2023-09-07T00:41:03;7.18;;;4.88;;
31764;SDS011;18338;53.240;8.798;2023-09-07T00:43:30;4.72;;;4.32;;
31764;SDS011;18338;53.240;8.798;2023-09-07T00:45:57;5.13;;;4.72;;
31764;SDS011;18338;53.240;8.798;2023-09-07T00:48:24;5.03;;;4.60;;
31764;SDS011;18338;53.240;8.798;2023-09-07T00:50:51;5.18;;;4.68;;
31764;SDS011;18338;53.240;8.798;2023-09-07T00:53:18;5.18;;;4.68;;
31764;SDS011;18338;53.240;8.798;2023-09-07T00:55:45;5.25;;;4.75;;
31764;SDS011;18338;53.240;8.798;2023-09-07T00:58:14;5.15;;;4.75;;
31764;SDS011;18338;53.240;8.798;2023-09-07T01:00:41;6.78;;;4.95;;
31764;SDS011;18338;53.240;8.798;2023-09-07T01:03:09;5.95;;;5.07;;
31764;SDS011;18338;53.240;8.798;2023-09-07T01:08:51;6.78;;;5.28;;
31764;SDS011;18338;53.240;8.798;2023-09-07T01:11:22;5.60;;;5.03;;
31764;SDS011;18338;53.240;8.798;2023-09-07T01:13:50;5.78;;;5.28;;
31764;SDS011;18338;53.240;8.798;2023-09-07T01:16:18;5.63;;;5.10;;
31764;SDS011;18338;53.240;8.798;2023-09-07T01:18:47;5.78;;;5.28;;
31764;SDS011;18338;53.240;8.798;2023-09-07T01:21:14;6.22;;;5.47;;
31764;SDS011;18338;53.240;8.798;2023-09-07T01:23:42;6.25;;;5.65;;
31764;SDS011;18338;53.240;8.798;2023-09-07T01:26:11;6.28;;;5.68;;
31764;SDS011;18338;53.240;8.798;2023-09-07T01:28:38;6.63;;;6.05;;
31764;SDS011;18338;53.240;8.798;2023-09-07T01:31:04;6.50;;;6.00;;
31764;SDS011;18338;53.240;8.798;2023-09-07T01:33:32;6.32;;;5.82;;
31764;SDS011;18338;53.240;8.798;2023-09-07T01:35:59;6.25;;;5.75;;
31764;SDS011;18338;53.240;8.798;2023-09-07T01:38:26;6.43;;;5.93;;
31764;SDS011;18338;53.240;8.798;2023-09-07T01:40:54;6.13;;;5.63;;
31764;SDS011;18338;53.240;8.798;2023-09-07T01:43:21;6.18;;;5.68;;
31764;SDS011;18338;53.240;8.798;2023-09-07T01:45:47;6.38;;;5.88;;
31764;SDS011;18338;53.240;8.798;2023-09-07T01:48:14;6.45;;;5.95;;
31764;SDS011;18338;53.240;8.798;2023-09-07T01:50:42;7.22;;;6.20;;
31764;SDS011;18338;53.240;8.798;2023-09-07T01:53:09;5.88;;;5.47;;
31764;SDS011;18338;53.240;8.798;2023-09-07T01:55:35;6.80;;;5.88;;
31764;SDS011;18338;53.240;8.798;2023-09-07T01:58:02;7.93;;;6.13;;
31764;SDS011;18338;53.240;8.798;2023-09-07T02:00:29;6.72;;;6.22;;
31764;SDS011;18338;53.240;8.798;2023-09-07T02:02:56;7.18;;;6.57;;
31764;SDS011;18338;53.240;8.798;2023-09-07T02:05:23;6.82;;;6.22;;
31764;SDS011;18338;53.240;8.798;2023-09-07T02:07:50;7.30;;;6.55;;
31764;SDS011;18338;53.240;8.798;2023-09-07T02:10:20;6.32;;;5.82;;
31764;SDS011;18338;53.240;8.798;2023-09-07T02:12:47;7.35;;;6.75;;
31764;SDS011;18338;53.240;8.798;2023-09-07T02:15:14;7.35;;;6.75;;
31764;SDS011;18338;53.240;8.798;2023-09-07T02:17:41;8.90;;;8.10;;
31764;SDS011;18338;53.240;8.798;2023-09-07T02:20:11;8.18;;;7.47;;
31764;SDS011;18338;53.240;8.798;2023-09-07T02:22:38;9.88;;;8.93;;
31764;SDS011;18338;53.240;8.798;2023-09-07T02:25:05;9.35;;;8.27;;
31764;SDS011;18338;53.240;8.798;2023-09-07T02:27:35;10.10;;;9.20;;
31764;SDS011;18338;53.240;8.798;2023-09-07T02:30:03;9.05;;;8.23;;
31764;SDS011;18338;53.240;8.798;2023-09-07T02:32:31;8.32;;;7.53;;
31764;SDS011;18338;53.240;8.798;2023-09-07T02:34:58;8.25;;;7.50;;
31764;SDS011;18338;53.240;8.798;2023-09-07T02:37:25;7.85;;;7.20;;
31764;SDS011;18338;53.240;8.798;2023-09-07T02:39:52;7.75;;;7.10;;
31764;SDS011;18338;53.240;8.798;2023-09-07T02:42:19;7.80;;;7.10;;
31764;SDS011;18338;53.240;8.798;2023-09-07T02:44:45;7.53;;;6.82;;
31764;SDS011;18338;53.240;8.798;2023-09-07T02:47:12;7.68;;;7.05;;
31764;SDS011;18338;53.240;8.798;2023-09-07T02:49:39;7.80;;;6.97;;
31764;SDS011;18338;53.240;8.798;2023-09-07T02:52:07;7.35;;;6.65;;
31764;SDS011;18338;53.240;8.798;2023-09-07T02:54:33;8.07;;;7.18;;
31764;SDS011;18338;53.240;8.798;2023-09-07T02:57:00;7.65;;;6.97;;
31764;SDS011;18338;53.240;8.798;2023-09-07T02:59:32;7.30;;;6.60;;
31764;SDS011;18338;53.240;8.798;2023-09-07T03:01:59;6.95;;;6.40;;
31764;SDS011;18338;53.240;8.798;2023-09-07T03:04:27;7.30;;;6.60;;
31764;SDS011;18338;53.240;8.798;2023-09-07T03:06:54;8.68;;;7.88;;
31764;SDS011;18338;53.240;8.798;2023-09-07T03:09:21;8.25;;;7.55;;
31764;SDS011;18338;53.240;8.798;2023-09-07T03:11:48;8.07;;;7.38;;
31764;SDS011;18338;53.240;8.798;2023-09-07T03:14:14;9.02;;;7.20;;
31764;SDS011;18338;53.240;8.798;2023-09-07T03:16:41;9.23;;;7.25;;
31764;SDS011;18338;53.240;8.798;2023-09-07T03:19:08;7.68;;;6.97;;
31764;SDS011;18338;53.240;8.798;2023-09-07T03:21:35;8.00;;;7.30;;
31764;SDS011;18338;53.240;8.798;2023-09-07T03:24:02;8.00;;;7.30;;
31764;SDS011;18338;53.240;8.798;2023-09-07T03:26:29;7.55;;;6.90;;
31764;SDS011;18338;53.240;8.798;2023-09-07T03:28:56;8.18;;;7.43;;
31764;SDS011;18338;53.240;8.798;2023-09-07T03:31:23;8.20;;;7.43;;
31764;SDS011;18338;53.240;8.798;2023-09-07T03:33:50;8.27;;;7.47;;
31764;SDS011;18338;53.240;8.798;2023-09-07T03:36:17;7.22;;;6.63;;
31764;SDS011;18338;53.240;8.798;2023-09-07T03:38:44;7.88;;;7.28;;
31764;SDS011;18338;53.240;8.798;2023-09-07T03:41:11;8.32;;;7.63;;
31764;SDS011;18338;53.240;8.798;2023-09-07T03:43:38;8.75;;;7.95;;
31764;SDS011;18338;53.240;8.798;2023-09-07T03:46:07;8.60;;;7.90;;
31764;SDS011;18338;53.240;8.798;2023-09-07T03:48:34;9.10;;;8.18;;
31764;SDS011;18338;53.240;8.798;2023-09-07T03:51:08;9.25;;;8.35;;
31764;SDS011;18338;53.240;8.798;2023-09-07T03:53:34;9.38;;;8.57;;
31764;SDS011;18338;53.240;8.798;2023-09-07T03:56:02;9.35;;;8.55;;
31764;SDS011;18338;53.240;8.798;2023-09-07T03:58:30;9.80;;;8.90;;
31764;SDS011;18338;53.240;8.798;2023-09-07T04:01:00;8.75;;;8.05;;
31764;SDS011;18338;53.240;8.798;2023-09-07T04:03:28;10.40;;;9.43;;
31764;SDS011;18338;53.240;8.798;2023-09-07T04:05:57;9.23;;;8.43;;
31764;SDS011;18338;53.240;8.798;2023-09-07T04:08:24;10.57;;;9.65;;
31764;SDS011;18338;53.240;8.798;2023-09-07T04:10:51;10.27;;;9.27;;
31764;SDS011;18338;53.240;8.798;2023-09-07T04:13:20;9.50;;;8.70;;
31764;SDS011;18338;53.240;8.798;2023-09-07T04:15:48;12.27;;;9.20;;
31764;SDS011;18338;53.240;8.798;2023-09-07T04:18:15;11.02;;;9.95;;
31764;SDS011;18338;53.240;8.798;2023-09-07T04:20:45;10.48;;;9.45;;
31764;SDS011;18338;53.240;8.798;2023-09-07T04:23:12;11.80;;;10.60;;
31764;SDS011;18338;53.240;8.798;2023-09-07T04:25:39;11.63;;;9.77;;
31764;SDS011;18338;53.240;8.798;2023-09-07T04:28:06;10.65;;;9.75;;
31764;SDS011;18338;53.240;8.798;2023-09-07T04:30:37;11.70;;;10.48;;
31764;SDS011;18338;53.240;8.798;2023-09-07T04:33:09;12.00;;;10.90;;
31764;SDS011;18338;53.240;8.798;2023-09-07T04:35:36;11.32;;;10.30;;
31764;SDS011;18338;53.240;8.798;2023-09-07T04:38:03;11.40;;;10.40;;
31764;SDS011;18338;53.240;8.798;2023-09-07T04:40:30;11.60;;;10.38;;
31764;SDS011;18338;53.240;8.798;2023-09-07T04:42:57;12.05;;;10.13;;
31764;SDS011;18338;53.240;8.798;2023-09-07T04:45:23;11.48;;;10.40;;
31764;SDS011;18338;53.240;8.798;2023-09-07T04:47:51;11.30;;;10.20;;
31764;SDS011;18338;53.240;8.798;2023-09-07T04:50:17;11.27;;;10.23;;
31764;SDS011;18338;53.240;8.798;2023-09-07T04:52:44;12.75;;;11.55;;
31764;SDS011;18338;53.240;8.798;2023-09-07T04:55:11;11.27;;;10.23;;
31764;SDS011;18338;53.240;8.798;2023-09-07T04:57:39;11.40;;;10.35;;
31764;SDS011;18338;53.240;8.798;2023-09-07T05:00:06;11.68;;;10.48;;
31764;SDS011;18338;53.240;8.798;2023-09-07T05:02:35;12.60;;;11.30;;
31764;SDS011;18338;53.240;8.798;2023-09-07T05:05:08;11.77;;;10.18;;
31764;SDS011;18338;53.240;8.798;2023-09-07T05:07:35;11.35;;;10.35;;
31764;SDS011;18338;53.240;8.798;2023-09-07T05:10:02;12.75;;;11.55;;
31764;SDS011;18338;53.240;8.798;2023-09-07T05:12:29;12.40;;;11.15;;
31764;SDS011;18338;53.240;8.798;2023-09-07T05:14:56;12.35;;;11.25;;
31764;SDS011;18338;53.240;8.798;2023-09-07T05:17:23;12.70;;;11.50;;
31764;SDS011;18338;53.240;8.798;2023-09-07T05:19:50;13.07;;;11.88;;
31764;SDS011;18338;53.240;8.798;2023-09-07T05:22:17;12.15;;;11.05;;
31764;SDS011;18338;53.240;8.798;2023-09-07T05:24:44;13.23;;;12.02;;
31764;SDS011;18338;53.240;8.798;2023-09-07T05:27:13;12.55;;;11.25;;
31764;SDS011;18338;53.240;8.798;2023-09-07T05:29:40;12.90;;;11.63;;
31764;SDS011;18338;53.240;8.798;2023-09-07T05:32:07;12.13;;;10.85;;
31764;SDS011;18338;53.240;8.798;2023-09-07T05:34:35;13.77;;;12.40;;
31764;SDS011;18338;53.240;8.798;2023-09-07T05:37:02;12.70;;;11.32;;
31764;SDS011;18338;53.240;8.798;2023-09-07T05:39:29;12.85;;;11.55;;
31764;SDS011;18338;53.240;8.798;2023-09-07T05:41:56;12.98;;;11.68;;
31764;SDS011;18338;53.240;8.798;2023-09-07T05:44:23;13.32;;;12.07;;
31764;SDS011;18338;53.240;8.798;2023-09-07T05:46:50;13.40;;;12.10;;
31764;SDS011;18338;53.240;8.798;2023-09-07T05:49:17;14.27;;;12.77;;
31764;SDS011;18338;53.240;8.798;2023-09-07T05:51:44;13.18;;;11.98;;
31764;SDS011;18338;53.240;8.798;2023-09-07T05:54:11;13.95;;;12.40;;
31764;SDS011;18338;53.240;8.798;2023-09-07T05:56:37;13.23;;;11.95;;
31764;SDS011;18338;53.240;8.798;2023-09-07T05:59:05;15.07;;;13.60;;
31764;SDS011;18338;53.240;8.798;2023-09-07T06:01:32;12.68;;;11.48;;
31764;SDS011;18338;53.240;8.798;2023-09-07T06:03:59;14.52;;;13.02;;
31764;SDS011;18338;53.240;8.798;2023-09-07T06:06:26;13.75;;;12.45;;
31764;SDS011;18338;53.240;8.798;2023-09-07T06:08:53;13.57;;;12.20;;
31764;SDS011;18338;53.240;8.798;2023-09-07T06:11:20;14.50;;;13.00;;
31764;SDS011;18338;53.240;8.798;2023-09-07T06:13:46;14.00;;;12.65;;
31764;SDS011;18338;53.240;8.798;2023-09-07T06:16:13;12.63;;;11.32;;
31764;SDS011;18338;53.240;8.798;2023-09-07T06:18:40;14.35;;;12.82;;
31764;SDS011;18338;53.240;8.798;2023-09-07T06:21:07;14.35;;;12.85;;
31764;SDS011;18338;53.240;8.798;2023-09-07T06:23:34;13.90;;;12.48;;
31764;SDS011;18338;53.240;8.798;2023-09-07T06:26:01;12.88;;;11.68;;
31764;SDS011;18338;53.240;8.798;2023-09-07T06:28:29;14.93;;;11.95;;
31764;SDS011;18338;53.240;8.798;2023-09-07T06:30:56;12.27;;;11.18;;
31764;SDS011;18338;53.240;8.798;2023-09-07T06:33:23;12.25;;;11.18;;
31764;SDS011;18338;53.240;8.798;2023-09-07T06:35:50;11.55;;;10.43;;
31764;SDS011;18338;53.240;8.798;2023-09-07T06:38:16;12.13;;;11.02;;
31764;SDS011;18338;53.240;8.798;2023-09-07T06:40:47;12.68;;;10.23;;
31764;SDS011;18338;53.240;8.798;2023-09-07T06:43:15;11.63;;;10.48;;
31764;SDS011;18338;53.240;8.798;2023-09-07T06:45:42;11.18;;;10.27;;
31764;SDS011;18338;53.240;8.798;2023-09-07T06:48:08;10.82;;;9.73;;
31764;SDS011;18338;53.240;8.798;2023-09-07T06:50:35;10.30;;;9.40;;
31764;SDS011;18338;53.240;8.798;2023-09-07T06:53:03;11.07;;;8.73;;
31764;SDS011;18338;53.240;8.798;2023-09-07T06:55:30;9.80;;;8.90;;
31764;SDS011;18338;53.240;8.798;2023-09-07T06:57:56;9.88;;;8.93;;
31764;SDS011;18338;53.240;8.798;2023-09-07T07:00:23;10.60;;;9.18;;
31764;SDS011;18338;53.240;8.798;2023-09-07T07:02:50;9.38;;;8.52;;
31764;SDS011;18338;53.240;8.798;2023-09-07T07:05:17;8.68;;;7.97;;
31764;SDS011;18338;53.240;8.798;2023-09-07T07:07:44;8.25;;;7.45;;
31764;SDS011;18338;53.240;8.798;2023-09-07T07:10:10;8.35;;;7.57;;
31764;SDS011;18338;53.240;8.798;2023-09-07T07:12:38;8.48;;;7.68;;
31764;SDS011;18338;53.240;8.798;2023-09-07T07:15:06;7.78;;;7.07;;
31764;SDS011;18338;53.240;8.798;2023-09-07T07:17:33;8.00;;;7.30;;
31764;SDS011;18338;53.240;8.798;2023-09-07T07:20:00;8.07;;;7.40;;
31764;SDS011;18338;53.240;8.798;2023-09-07T07:22:27;7.40;;;6.60;;
31764;SDS011;18338;53.240;8.798;2023-09-07T07:24:54;7.47;;;6.88;;
31764;SDS011;18338;53.240;8.798;2023-09-07T07:27:21;7.60;;;7.00;;
31764;SDS011;18338;53.240;8.798;2023-09-07T07:29:48;7.70;;;7.00;;
31764;SDS011;18338;53.240;8.798;2023-09-07T07:32:17;7.72;;;6.90;;
31764;SDS011;18338;53.240;8.798;2023-09-07T07:34:44;7.72;;;6.60;;
31764;SDS011;18338;53.240;8.798;2023-09-07T07:37:11;6.85;;;6.25;;
31764;SDS011;18338;53.240;8.798;2023-09-07T07:39:37;6.95;;;6.38;;
31764;SDS011;18338;53.240;8.798;2023-09-07T07:42:04;7.03;;;6.53;;
31764;SDS011;18338;53.240;8.798;2023-09-07T07:44:32;6.78;;;6.18;;
31764;SDS011;18338;53.240;8.798;2023-09-07T07:46:59;6.25;;;5.65;;
31764;SDS011;18338;53.240;8.798;2023-09-07T07:49:26;6.53;;;5.93;;
31764;SDS011;18338;53.240;8.798;2023-09-07T07:51:54;6.15;;;5.65;;
31764;SDS011;18338;53.240;8.798;2023-09-07T07:54:22;6.18;;;5.57;;
31764;SDS011;18338;53.240;8.798;2023-09-07T07:56:50;6.38;;;4.88;;
31764;SDS011;18338;53.240;8.798;2023-09-07T07:59:18;6.13;;;5.55;;
31764;SDS011;18338;53.240;8.798;2023-09-07T08:01:45;5.97;;;5.47;;
31764;SDS011;18338;53.240;8.798;2023-09-07T08:04:12;6.18;;;5.15;;
31764;SDS011;18338;53.240;8.798;2023-09-07T08:06:39;5.40;;;4.90;;
31764;SDS011;18338;53.240;8.798;2023-09-07T08:09:06;5.40;;;4.90;;
31764;SDS011;18338;53.240;8.798;2023-09-07T08:11:34;5.10;;;4.70;;
31764;SDS011;18338;53.240;8.798;2023-09-07T08:14:01;5.10;;;4.70;;
31764;SDS011;18338;53.240;8.798;2023-09-07T08:16:28;5.47;;;4.25;;
31764;SDS011;18338;53.240;8.798;2023-09-07T08:18:55;5.13;;;4.60;;
31764;SDS011;18338;53.240;8.798;2023-09-07T08:21:22;4.90;;;4.40;;
31764;SDS011;18338;53.240;8.798;2023-09-07T08:23:49;4.50;;;4.10;;
31764;SDS011;18338;53.240;8.798;2023-09-07T08:26:16;4.75;;;4.32;;
31764;SDS011;18338;53.240;8.798;2023-09-07T08:28:43;4.25;;;3.95;;
31764;SDS011;18338;53.240;8.798;2023-09-07T08:31:13;4.60;;;4.20;;
31764;SDS011;18338;53.240;8.798;2023-09-07T08:33:48;4.50;;;3.85;;
31764;SDS011;18338;53.240;8.798;2023-09-07T08:36:17;3.55;;;3.25;;
31764;SDS011;18338;53.240;8.798;2023-09-07T08:38:44;3.75;;;3.45;;
31764;SDS011;18338;53.240;8.798;2023-09-07T08:41:10;4.32;;;3.13;;
31764;SDS011;18338;53.240;8.798;2023-09-07T08:43:39;3.38;;;3.10;;
31764;SDS011;18338;53.240;8.798;2023-09-07T08:46:15;3.13;;;2.83;;
31764;SDS011;18338;53.240;8.798;2023-09-07T08:48:44;3.28;;;2.97;;
31764;SDS011;18338;53.240;8.798;2023-09-07T08:51:13;3.78;;;3.30;;
31764;SDS011;18338;53.240;8.798;2023-09-07T08:53:42;3.78;;;3.28;;
31764;SDS011;18338;53.240;8.798;2023-09-07T08:56:12;3.75;;;3.45;;
31764;SDS011;18338;53.240;8.798;2023-09-07T08:58:41;3.38;;;3.08;;
31764;SDS011;18338;53.240;8.798;2023-09-07T09:01:08;3.78;;;3.47;;
31764;SDS011;18338;53.240;8.798;2023-09-07T09:03:35;3.80;;;3.50;;
31764;SDS011;18338;53.240;8.798;2023-09-07T09:06:03;5.00;;;3.83;;
31764;SDS011;18338;53.240;8.798;2023-09-07T09:08:50;3.85;;;3.45;;
31764;SDS011;18338;53.240;8.798;2023-09-07T09:11:20;3.63;;;3.33;;
31764;SDS011;18338;53.240;8.798;2023-09-07T09:13:48;4.07;;;3.72;;
31764;SDS011;18338;53.240;8.798;2023-09-07T09:16:15;3.88;;;3.58;;
31764;SDS011;18338;53.240;8.798;2023-09-07T09:21:20;3.90;;;3.50;;
31764;SDS011;18338;53.240;8.798;2023-09-07T09:23:49;3.88;;;3.40;;
31764;SDS011;18338;53.240;8.798;2023-09-07T09:26:17;3.63;;;3.33;;
31764;SDS011;18338;53.240;8.798;2023-09-07T09:28:44;4.22;;;3.50;;
31764;SDS011;18338;53.240;8.798;2023-09-07T09:31:11;4.78;;;3.60;;
31764;SDS011;18338;53.240;8.798;2023-09-07T09:33:40;4.18;;;3.78;;
31764;SDS011;18338;53.240;8.798;2023-09-07T09:36:08;4.85;;;3.72;;
31764;SDS011;18338;53.240;8.798;2023-09-07T09:38:35;3.88;;;3.58;;
31764;SDS011;18338;53.240;8.798;2023-09-07T09:41:03;4.30;;;3.92;;
31764;SDS011;18338;53.240;8.798;2023-09-07T09:43:30;4.10;;;3.70;;
31764;SDS011;18338;53.240;8.798;2023-09-07T09:45:57;4.05;;;3.75;;
31764;SDS011;18338;53.240;8.798;2023-09-07T09:48:27;4.47;;;4.05;;
31764;SDS011;18338;53.240;8.798;2023-09-07T09:50:54;4.30;;;4.00;;
31764;SDS011;18338;53.240;8.798;2023-09-07T09:53:21;3.72;;;3.42;;
31764;SDS011;18338;53.240;8.798;2023-09-07T09:55:50;3.83;;;3.53;;
31764;SDS011;18338;53.240;8.798;2023-09-07T09:58:20;3.95;;;3.53;;
31764;SDS011;18338;53.240;8.798;2023-09-07T10:00:50;4.53;;;3.72;;
31764;SDS011;18338;53.240;8.798;2023-09-07T10:03:26;4.00;;;3.70;;
31764;SDS011;18338;53.240;8.798;2023-09-07T10:06:07;3.95;;;3.40;;
31764;SDS011;18338;53.240;8.798;2023-09-07T10:08:37;4.28;;;3.70;;
31764;SDS011;18338;53.240;8.798;2023-09-07T10:11:08;5.07;;;3.58;;
31764;SDS011;18338;53.240;8.798;2023-09-07T10:13:37;4.18;;;3.88;;
31764;SDS011;18338;53.240;8.798;2023-09-07T10:16:08;26.85;;;6.65;;
31764;SDS011;18338;53.240;8.798;2023-09-07T10:18:36;5.55;;;3.83;;
31764;SDS011;18338;53.240;8.798;2023-09-07T10:21:04;3.83;;;3.53;;
31764;SDS011;18338;53.240;8.798;2023-09-07T10:23:39;5.60;;;4.68;;
31764;SDS011;18338;53.240;8.798;2023-09-07T10:26:10;3.78;;;3.47;;
31764;SDS011;18338;53.240;8.798;2023-09-07T10:28:39;4.80;;;3.65;;
31764;SDS011;18338;53.240;8.798;2023-09-07T10:31:06;4.07;;;3.40;;
31764;SDS011;18338;53.240;8.798;2023-09-07T10:33:39;4.72;;;4.20;;
31764;SDS011;18338;53.240;8.798;2023-09-07T10:36:07;5.03;;;3.90;;
31764;SDS011;18338;53.240;8.798;2023-09-07T10:38:35;4.82;;;3.47;;
31764;SDS011;18338;53.240;8.798;2023-09-07T10:41:02;4.88;;;3.72;;
31764;SDS011;18338;53.240;8.798;2023-09-07T10:43:32;3.95;;;3.30;;
31764;SDS011;18338;53.240;8.798;2023-09-07T10:46:00;3.53;;;3.22;;
31764;SDS011;18338;53.240;8.798;2023-09-07T10:48:30;3.60;;;3.30;;
31764;SDS011;18338;53.240;8.798;2023-09-07T10:50:58;4.22;;;3.22;;
31764;SDS011;18338;53.240;8.798;2023-09-07T10:53:27;3.58;;;3.28;;
31764;SDS011;18338;53.240;8.798;2023-09-07T10:55:58;4.43;;;3.33;;
31764;SDS011;18338;53.240;8.798;2023-09-07T10:58:32;3.38;;;3.08;;
31764;SDS011;18338;53.240;8.798;2023-09-07T11:01:00;5.05;;;3.03;;
31764;SDS011;18338;53.240;8.798;2023-09-07T11:03:29;6.75;;;3.55;;
31764;SDS011;18338;53.240;8.798;2023-09-07T11:06:01;3.42;;;3.13;;
31764;SDS011;18338;53.240;8.798;2023-09-07T11:08:35;4.07;;;3.65;;
31764;SDS011;18338;53.240;8.798;2023-09-07T11:11:02;3.75;;;3.22;;
31764;SDS011;18338;53.240;8.798;2023-09-07T11:13:29;4.10;;;3.70;;
31764;SDS011;18338;53.240;8.798;2023-09-07T11:15:57;3.58;;;3.28;;
31764;SDS011;18338;53.240;8.798;2023-09-07T11:18:25;3.22;;;2.95;;
31764;SDS011;18338;53.240;8.798;2023-09-07T11:20:53;3.25;;;3.05;;
31764;SDS011;18338;53.240;8.798;2023-09-07T11:23:21;3.20;;;2.90;;
31764;SDS011;18338;53.240;8.798;2023-09-07T11:25:48;3.70;;;3.30;;
31764;SDS011;18338;53.240;8.798;2023-09-07T11:28:18;3.40;;;3.10;;
31764;SDS011;18338;53.240;8.798;2023-09-07T11:30:52;3.92;;;2.95;;
31764;SDS011;18338;53.240;8.798;2023-09-07T11:33:21;3.00;;;2.80;;
31764;SDS011;18338;53.240;8.798;2023-09-07T11:35:49;3.05;;;2.75;;
31764;SDS011;18338;53.240;8.798;2023-09-07T11:38:17;3.97;;;2.80;;
31764;SDS011;18338;53.240;8.798;2023-09-07T11:40:44;2.90;;;2.70;;
31764;SDS011;18338;53.240;8.798;2023-09-07T11:43:15;3.17;;;2.97;;
31764;SDS011;18338;53.240;8.798;2023-09-07T11:45:43;2.90;;;2.70;;
31764;SDS011;18338;53.240;8.798;2023-09-07T11:48:12;3.05;;;2.80;;
31764;SDS011;18338;53.240;8.798;2023-09-07T11:50:39;2.88;;;2.67;;
31764;SDS011;18338;53.240;8.798;2023-09-07T11:53:07;3.10;;;2.90;;
31764;SDS011;18338;53.240;8.798;2023-09-07T11:55:34;2.92;;;2.70;;
31764;SDS011;18338;53.240;8.798;2023-09-07T11:58:02;3.00;;;2.78;;
31764;SDS011;18338;53.240;8.798;2023-09-07T12:00:29;2.80;;;2.60;;
31764;SDS011;18338;53.240;8.798;2023-09-07T12:02:58;2.80;;;2.60;;
31764;SDS011;18338;53.240;8.798;2023-09-07T12:05:25;3.65;;;3.35;;
31764;SDS011;18338;53.240;8.798;2023-09-07T12:07:52;4.50;;;2.90;;
31764;SDS011;18338;53.240;8.798;2023-09-07T12:10:19;3.05;;;2.85;;
31764;SDS011;18338;53.240;8.798;2023-09-07T12:12:46;3.00;;;2.75;;
31764;SDS011;18338;53.240;8.798;2023-09-07T12:15:16;3.05;;;2.72;;
31764;SDS011;18338;53.240;8.798;2023-09-07T12:17:43;3.28;;;2.80;;
31764;SDS011;18338;53.240;8.798;2023-09-07T12:20:10;2.97;;;2.78;;
31764;SDS011;18338;53.240;8.798;2023-09-07T12:22:40;2.50;;;2.30;;
31764;SDS011;18338;53.240;8.798;2023-09-07T12:25:07;3.50;;;2.85;;
31764;SDS011;18338;53.240;8.798;2023-09-07T12:27:42;2.85;;;2.65;;
31764;SDS011;18338;53.240;8.798;2023-09-07T12:30:20;3.00;;;2.80;;
31764;SDS011;18338;53.240;8.798;2023-09-07T12:32:49;3.40;;;3.10;;
31764;SDS011;18338;53.240;8.798;2023-09-07T12:35:17;3.20;;;2.50;;
31764;SDS011;18338;53.240;8.798;2023-09-07T12:37:44;3.35;;;2.50;;
31764;SDS011;18338;53.240;8.798;2023-09-07T12:40:11;3.10;;;2.78;;
31764;SDS011;18338;53.240;8.798;2023-09-07T12:42:41;2.30;;;2.20;;
31764;SDS011;18338;53.240;8.798;2023-09-07T12:45:10;2.63;;;2.42;;
31764;SDS011;18338;53.240;8.798;2023-09-07T12:47:38;2.92;;;2.72;;
31764;SDS011;18338;53.240;8.798;2023-09-07T12:50:06;2.95;;;2.40;;
31764;SDS011;18338;53.240;8.798;2023-09-07T12:52:33;3.00;;;2.72;;
31764;SDS011;18338;53.240;8.798;2023-09-07T12:55:05;3.63;;;2.78;;
31764;SDS011;18338;53.240;8.798;2023-09-07T12:57:34;2.88;;;2.67;;
31764;SDS011;18338;53.240;8.798;2023-09-07T13:00:03;2.78;;;2.40;;
31764;SDS011;18338;53.240;8.798;2023-09-07T13:02:30;3.88;;;2.25;;
31764;SDS011;18338;53.240;8.798;2023-09-07T13:04:57;2.88;;;2.38;;
31764;SDS011;18338;53.240;8.798;2023-09-07T13:07:24;3.33;;;2.47;;
31764;SDS011;18338;53.240;8.798;2023-09-07T13:09:51;3.00;;;2.63;;
31764;SDS011;18338;53.240;8.798;2023-09-07T13:12:18;2.40;;;2.20;;
31764;SDS011;18338;53.240;8.798;2023-09-07T13:14:45;2.80;;;2.60;;
31764;SDS011;18338;53.240;8.798;2023-09-07T13:17:12;3.15;;;2.60;;
31764;SDS011;18338;53.240;8.798;2023-09-07T13:19:42;2.80;;;2.60;;
31764;SDS011;18338;53.240;8.798;2023-09-07T13:22:10;2.72;;;2.53;;
31764;SDS011;18338;53.240;8.798;2023-09-07T13:24:37;4.40;;;2.50;;
31764;SDS011;18338;53.240;8.798;2023-09-07T13:27:03;3.08;;;2.33;;
31764;SDS011;18338;53.240;8.798;2023-09-07T13:29:31;2.80;;;2.50;;
31764;SDS011;18338;53.240;8.798;2023-09-07T13:31:58;4.00;;;2.67;;
31764;SDS011;18338;53.240;8.798;2023-09-07T13:34:26;3.88;;;2.50;;
31764;SDS011;18338;53.240;8.798;2023-09-07T13:36:52;2.75;;;2.55;;
31764;SDS011;18338;53.240;8.798;2023-09-07T13:39:20;2.88;;;2.67;;
31764;SDS011;18338;53.240;8.798;2023-09-07T13:41:48;3.08;;;2.78;;
31764;SDS011;18338;53.240;8.798;2023-09-07T13:44:16;3.55;;;2.45;;
31764;SDS011;18338;53.240;8.798;2023-09-07T13:46:43;2.88;;;2.53;;
31764;SDS011;18338;53.240;8.798;2023-09-07T13:49:11;2.42;;;2.30;;
31764;SDS011;18338;53.240;8.798;2023-09-07T13:51:39;3.05;;;2.78;;
31764;SDS011;18338;53.240;8.798;2023-09-07T13:54:07;3.35;;;2.97;;
31764;SDS011;18338;53.240;8.798;2023-09-07T13:56:35;3.53;;;2.85;;
31764;SDS011;18338;53.240;8.798;2023-09-07T13:59:04;2.95;;;2.75;;
31764;SDS011;18338;53.240;8.798;2023-09-07T14:01:31;3.55;;;2.80;;
31764;SDS011;18338;53.240;8.798;2023-09-07T14:04:05;3.10;;;2.90;;
31764;SDS011;18338;53.240;8.798;2023-09-07T14:06:33;4.20;;;2.92;;
31764;SDS011;18338;53.240;8.798;2023-09-07T14:09:03;3.38;;;3.08;;
31764;SDS011;18338;53.240;8.798;2023-09-07T14:11:33;3.05;;;2.85;;
31764;SDS011;18338;53.240;8.798;2023-09-07T14:14:00;3.20;;;2.97;;
31764;SDS011;18338;53.240;8.798;2023-09-07T14:16:29;3.15;;;2.92;;
31764;SDS011;18338;53.240;8.798;2023-09-07T14:18:59;4.20;;;2.75;;
31764;SDS011;18338;53.240;8.798;2023-09-07T14:23:57;3.33;;;3.03;;
31764;SDS011;18338;53.240;8.798;2023-09-07T14:26:24;3.15;;;2.70;;
31764;SDS011;18338;53.240;8.798;2023-09-07T14:28:51;3.30;;;3.00;;
31764;SDS011;18338;53.240;8.798;2023-09-07T14:31:18;3.13;;;2.92;;
31764;SDS011;18338;53.240;8.798;2023-09-07T14:36:15;3.22;;;2.92;;
31764;SDS011;18338;53.240;8.798;2023-09-07T14:38:42;3.63;;;3.10;;
31764;SDS011;18338;53.240;8.798;2023-09-07T14:41:11;3.35;;;3.15;;
31764;SDS011;18338;53.240;8.798;2023-09-07T14:43:45;3.70;;;3.05;;
31764;SDS011;18338;53.240;8.798;2023-09-07T14:46:13;3.38;;;3.10;;
31764;SDS011;18338;53.240;8.798;2023-09-07T14:48:41;4.25;;;3.30;;
31764;SDS011;18338;53.240;8.798;2023-09-07T14:51:09;3.20;;;2.90;;
31764;SDS011;18338;53.240;8.798;2023-09-07T14:53:35;3.50;;;3.20;;
31764;SDS011;18338;53.240;8.798;2023-09-07T14:56:03;3.38;;;3.08;;
31764;SDS011;18338;53.240;8.798;2023-09-07T14:58:30;3.78;;;3.35;;